createdAt,value
2023-03-23T15:57:56.140Z,2.10
2023-03-23T16:00:27.236Z,2.05
2023-03-23T16:02:59.630Z,2.17
2023-03-23T16:05:29.744Z,1.70
2023-03-23T16:07:59.316Z,1.77
2023-03-23T16:10:31.109Z,1.90
2023-03-23T16:13:00.390Z,1.95
2023-03-23T16:15:30.479Z,2.13
2023-03-23T16:18:00.316Z,1.90
2023-03-23T16:20:32.665Z,2.60
2023-03-23T16:23:02.482Z,1.90
2023-03-23T16:25:33.356Z,1.70
2023-03-23T16:28:02.753Z,1.88
2023-03-23T16:30:35.091Z,2.20
2023-03-23T16:33:04.455Z,1.90
2023-03-23T16:35:33.481Z,2.03
2023-03-23T16:38:07.772Z,2.22
2023-03-23T16:40:41.018Z,1.90
2023-03-23T16:43:10.304Z,1.90
2023-03-23T16:45:42.425Z,2.63
2023-03-23T16:48:14.323Z,2.47
2023-03-23T16:50:45.193Z,2.20
2023-03-23T16:53:14.794Z,2.37
2023-03-23T16:55:48.887Z,2.30
2023-03-23T16:58:19.623Z,2.77
2023-03-23T17:00:51.590Z,3.17
2023-03-23T17:03:22.481Z,3.73
2023-03-23T17:05:53.814Z,2.37
2023-03-23T17:08:23.232Z,2.57
2023-03-23T17:10:53.918Z,2.90
2023-03-23T17:13:23.416Z,2.57
2023-03-23T17:15:55.874Z,2.20
2023-03-23T17:18:25.604Z,2.97
2023-03-23T17:20:55.939Z,2.70
2023-03-23T17:23:25.905Z,3.00
2023-03-23T17:25:57.005Z,2.87
2023-03-23T17:28:26.738Z,3.00
2023-03-23T17:30:56.108Z,2.80
2023-03-23T17:33:26.402Z,3.07
2023-03-23T17:35:55.955Z,2.50
2023-03-23T17:38:25.344Z,2.23
2023-03-23T17:41:00.731Z,2.67
2023-03-23T17:43:30.456Z,2.27
2023-03-23T17:46:00.394Z,2.13
2023-03-23T17:48:29.872Z,2.00
2023-03-23T17:51:00.133Z,2.50
2023-03-23T17:53:30.504Z,2.73
2023-03-23T17:56:02.174Z,3.97
2023-03-23T17:58:31.761Z,4.37
2023-03-23T18:01:01.625Z,4.00
2023-03-23T18:04:09.696Z,4.17
2023-03-23T18:06:46.031Z,3.27
2023-03-23T18:09:15.999Z,3.97
2023-03-23T18:11:47.181Z,5.43
2023-03-23T18:14:16.505Z,5.73
2023-03-23T18:16:46.393Z,5.47
2023-03-23T18:19:16.138Z,5.57
2023-03-23T18:21:47.241Z,5.30
2023-03-23T18:24:16.793Z,4.90
2023-03-23T18:26:47.890Z,6.87
2023-03-23T18:29:17.582Z,5.27
2023-03-23T18:31:50.288Z,4.80
2023-03-23T18:34:20.569Z,5.03
2023-03-23T18:36:53.162Z,6.57
2023-03-23T18:39:49.405Z,5.53
2023-03-23T18:42:21.893Z,6.80
2023-03-23T18:44:52.877Z,6.40
2023-03-23T18:47:24.400Z,6.73
2023-03-23T18:49:56.990Z,6.63
2023-03-23T18:52:33.742Z,6.33
2023-03-23T18:55:06.624Z,8.07
2023-03-23T18:57:37.859Z,7.97
2023-03-23T19:00:09.314Z,7.97
2023-03-23T19:02:39.959Z,8.20
2023-03-23T19:05:12.632Z,10.13
2023-03-23T19:07:43.969Z,10.10
2023-03-23T19:10:13.887Z,10.37
2023-03-23T19:12:46.508Z,10.70
2023-03-23T19:15:18.399Z,10.23
2023-03-23T19:17:48.207Z,11.53
2023-03-23T19:20:37.197Z,11.67
2023-03-23T19:23:07.236Z,8.83
2023-03-23T19:25:36.406Z,9.67
2023-03-23T19:30:45.072Z,9.70
2023-03-23T19:33:14.196Z,9.77
2023-03-23T19:35:44.538Z,10.57
2023-03-23T19:38:14.153Z,11.40
2023-03-23T19:40:43.925Z,10.57
2023-03-23T19:43:15.610Z,9.83
2023-03-23T19:45:48.075Z,9.67
2023-03-23T19:48:18.277Z,8.70
2023-03-23T19:50:51.381Z,8.77
2023-03-23T19:53:23.074Z,8.67
2023-03-23T19:55:53.341Z,9.40
2023-03-23T19:58:29.426Z,9.70
2023-03-23T20:00:58.955Z,9.97
2023-03-23T20:03:28.759Z,9.27
2023-03-23T20:06:02.210Z,9.77
2023-03-23T20:08:32.680Z,9.27
2023-03-23T20:11:07.063Z,9.87
2023-03-23T20:13:39.531Z,9.23
2023-03-23T20:16:10.730Z,8.17
2023-03-23T20:18:41.415Z,8.67
2023-03-23T20:21:13.227Z,8.13
2023-03-23T20:23:45.483Z,8.30
2023-03-23T20:26:18.103Z,8.77
2023-03-23T20:28:49.433Z,9.73
2023-03-23T20:31:41.039Z,10.07
2023-03-23T20:34:13.665Z,10.67
2023-03-23T20:36:45.530Z,8.53
2023-03-23T20:39:19.421Z,7.47
2023-03-23T20:41:51.152Z,8.50
2023-03-23T20:44:25.446Z,8.60
2023-03-23T20:46:58.723Z,8.50
2023-03-23T20:49:28.648Z,8.10
2023-03-23T20:51:58.771Z,9.33
2023-03-23T20:54:28.630Z,9.63
2023-03-23T20:56:59.369Z,8.67
2023-03-23T20:59:30.773Z,7.40
2023-03-23T21:02:00.684Z,7.43
2023-03-23T21:04:30.667Z,7.07
2023-03-23T21:07:01.253Z,8.87
2023-03-23T21:09:31.778Z,9.47
2023-03-23T21:12:01.012Z,7.70
2023-03-23T21:14:32.279Z,6.93
2023-03-23T21:17:02.279Z,7.90
2023-03-23T21:19:32.458Z,7.33
2023-03-23T21:22:04.934Z,6.60
2023-03-23T21:24:37.873Z,6.87
2023-03-23T21:27:07.234Z,7.23
2023-03-23T21:29:39.056Z,6.73
2023-03-23T21:32:09.059Z,6.50
2023-03-23T21:34:39.104Z,6.63
2023-03-23T21:37:10.094Z,7.53
2023-03-23T21:39:39.933Z,7.57
2023-03-23T21:42:08.757Z,6.70
2023-03-23T21:44:40.491Z,6.30
2023-03-23T21:47:11.510Z,6.20
2023-03-23T21:49:41.455Z,6.30
2023-03-23T21:52:11.196Z,6.43
2023-03-23T21:54:41.641Z,6.80
2023-03-23T21:57:12.292Z,6.70
2023-03-23T21:59:43.587Z,8.33
2023-03-23T22:02:14.269Z,8.87
2023-03-23T22:04:43.995Z,8.80
2023-03-23T22:07:16.491Z,8.63
2023-03-23T22:09:46.324Z,8.70
2023-03-23T22:12:16.718Z,8.77
2023-03-23T22:14:47.977Z,7.53
2023-03-23T22:17:16.956Z,7.10
2023-03-23T22:19:46.301Z,7.57
2023-03-23T22:22:15.681Z,7.93
2023-03-23T22:24:44.719Z,7.90
2023-03-23T22:27:14.012Z,7.00
2023-03-23T22:29:43.568Z,6.73
2023-03-23T22:32:13.967Z,5.83
2023-03-23T22:34:43.237Z,6.13
2023-03-23T22:37:12.110Z,6.70
2023-03-23T22:39:40.899Z,6.87
2023-03-23T22:42:10.688Z,7.07
2023-03-23T22:44:41.707Z,6.30
2023-03-23T22:47:10.720Z,7.70
2023-03-23T22:49:41.200Z,7.00
2023-03-23T22:52:10.744Z,7.40
2023-03-23T22:54:40.627Z,7.13
2023-03-23T22:57:09.647Z,7.47
2023-03-23T22:59:39.220Z,7.47
2023-03-23T23:02:11.250Z,7.13
2023-03-23T23:04:41.654Z,7.90
2023-03-23T23:07:14.857Z,7.13
2023-03-23T23:09:44.659Z,6.93
2023-03-23T23:12:15.747Z,6.27
2023-03-23T23:14:46.843Z,6.17
2023-03-23T23:17:16.080Z,5.73
2023-03-23T23:19:47.337Z,5.57
2023-03-23T23:22:19.280Z,6.17
2023-03-23T23:24:48.875Z,5.30
2023-03-23T23:27:18.635Z,5.80
2023-03-23T23:29:48.086Z,5.50
2023-03-23T23:32:17.284Z,4.60
2023-03-23T23:34:48.699Z,5.20
2023-03-23T23:37:17.617Z,5.43
2023-03-23T23:39:47.393Z,4.70
2023-03-23T23:42:16.673Z,4.73
2023-03-23T23:44:46.974Z,4.83
2023-03-23T23:47:16.300Z,4.47
2023-03-23T23:49:46.917Z,5.00
2023-03-23T23:52:16.186Z,4.43
2023-03-23T23:54:47.517Z,4.40
2023-03-23T23:57:17.438Z,4.53
2023-03-23T23:59:46.567Z,4.40
